Time;durP1;ratioP1;P1;durP2;ratioP2;P2;SDS_P1;SDS_P2;PMS_P1;PMS_P2;Temp;Humidity;BMP_temperature;BMP_pressure;BME280_temperature;BME280_humidity;BME280_pressure;Samples;Min_cycle;Max_cycle;Signal;HPM_P1;HPM_P2
2023/04/29 00:02:24;;;;;;;8.35;3.30;;;;;;;17.49;100.00;95982.81;4955549;28;20097;-58
2023/04/29 00:04:53;;;;;;;8.40;3.60;;;;;;;17.47;100.00;95989.34;4944486;28;20485;-53
2023/04/29 00:07:22;;;;;;;12.20;5.18;;;;;;;17.49;100.00;95982.00;4940538;28;20566;-56
2023/04/29 00:09:51;;;;;;;4.30;2.10;;;;;;;17.37;100.00;95981.72;4941032;28;20109;-57
2023/04/29 00:12:20;;;;;;;12.15;5.15;;;;;;;17.60;100.00;95981.41;4943626;28;20531;-58
2023/04/29 00:14:48;;;;;;;6.30;2.97;;;;;;;17.17;100.00;95980.81;4946796;28;20507;-54
2023/04/29 00:17:18;;;;;;;6.50;3.05;;;;;;;17.88;100.00;95970.63;4940260;28;20087;-53
2023/04/29 00:19:46;;;;;;;5.18;2.45;;;;;;;17.62;100.00;95968.72;4945200;28;20095;-55
2023/04/29 00:22:15;;;;;;;9.75;4.78;;;;;;;17.29;100.00;95974.72;4941870;28;20078;-56
2023/04/29 00:24:43;;;;;;;8.32;5.13;;;;;;;16.97;100.00;95972.72;4942519;28;20090;-57
2023/04/29 00:27:12;;;;;;;6.30;3.92;;;;;;;17.41;100.00;95975.00;4940812;28;20479;-56
2023/04/29 00:29:40;;;;;;;9.95;6.13;;;;;;;17.53;100.00;95975.22;4947487;28;20089;-50
2023/04/29 00:32:09;;;;;;;9.95;4.72;;;;;;;17.28;100.00;95978.41;4948457;28;20093;-56
2023/04/29 00:34:38;;;;;;;7.22;2.88;;;;;;;17.79;100.00;95983.34;4949914;28;20091;-51
2023/04/29 00:37:06;;;;;;;5.05;2.10;;;;;;;17.70;100.00;95978.38;4943713;28;20137;-55
2023/04/29 00:39:35;;;;;;;12.30;4.80;;;;;;;17.00;100.00;95978.50;4952572;28;20086;-53
2023/04/29 00:42:03;;;;;;;9.15;4.57;;;;;;;17.43;100.00;95983.59;4951146;28;20091;-50
2023/04/29 00:44:31;;;;;;;12.82;5.72;;;;;;;17.70;100.00;95973.03;4953823;28;20490;-52
2023/04/29 00:47:00;;;;;;;7.30;4.13;;;;;;;17.79;100.00;95986.03;4944385;28;20094;-57
2023/04/29 00:49:28;;;;;;;12.73;5.50;;;;;;;17.48;100.00;95981.19;4949118;28;20105;-56
2023/04/29 00:51:59;;;;;;;11.77;5.32;;;;;;;18.38;100.00;95971.09;4935898;28;22372;-55
2023/04/29 00:57:10;;;;;;;35.10;15.73;;;;;;;18.31;100.00;95972.97;5364328;23;20292;-65
2023/04/29 00:59:38;;;;;;;3.47;1.52;;;;;;;17.69;100.00;95974.06;4965074;28;20082;-64
2023/04/29 01:02:07;;;;;;;11.05;3.85;;;;;;;18.08;100.00;95972.53;4957643;28;20150;-65
2023/04/29 01:04:35;;;;;;;7.35;3.28;;;;;;;18.08;100.00;95964.53;4959409;28;20048;-65
2023/04/29 01:07:57;;;;;;;16.63;8.02;;;;;;;18.86;100.00;95962.06;4955315;28;20050;-65
2023/04/29 01:10:54;;;;;;;14.68;7.18;;;;;;;18.86;100.00;95964.75;4940328;28;20418;-65
2023/04/29 01:13:29;;;;;;;7.10;3.00;;;;;;;18.97;100.00;95959.56;4936526;28;20695;-65
2023/04/29 01:16:02;;;;;;;7.82;3.35;;;;;;;18.28;100.00;95968.03;4938052;28;20547;-66
2023/04/29 01:18:33;;;;;;;5.43;2.65;;;;;;;18.83;100.00;95965.97;4939915;28;20094;-65
2023/04/29 01:21:02;;;;;;;5.82;2.60;;;;;;;18.64;100.00;95964.91;4939616;28;20098;-65
2023/04/29 01:23:32;;;;;;;6.85;3.13;;;;;;;18.62;100.00;95958.16;4940180;28;20071;-64
2023/04/29 01:26:00;;;;;;;4.78;1.48;;;;;;;18.48;100.00;95960.03;4948874;28;20078;-65
2023/04/29 01:28:41;;;;;;;4.65;1.40;;;;;;;18.55;100.00;95958.16;4939457;28;20116;-65
2023/04/29 01:31:15;;;;;;;1.98;1.30;;;;;;;19.18;100.00;95960.31;4943548;28;20553;-65
2023/04/29 01:33:48;;;;;;;1.95;1.00;;;;;;;19.04;100.00;95959.53;4944446;28;20088;-66
2023/04/29 01:36:23;;;;;;;2.47;1.35;;;;;;;19.18;100.00;95960.31;4941008;28;20083;-66
2023/04/29 01:39:00;;;;;;;1.92;1.20;;;;;;;18.69;100.00;95961.66;4941208;28;20082;-65
2023/04/29 01:41:36;;;;;;;3.20;1.25;;;;;;;19.09;100.00;95966.91;4947082;28;20082;-65
2023/04/29 01:44:04;;;;;;;3.10;1.25;;;;;;;18.78;100.00;95964.94;4941511;28;20095;-67
2023/04/29 01:46:33;;;;;;;1.52;0.93;;;;;;;18.43;100.00;95968.63;4945457;28;20083;-66
2023/04/29 01:49:02;;;;;;;1.75;1.05;;;;;;;18.61;100.00;95969.84;4944542;28;22425;-65
2023/04/29 01:51:31;;;;;;;1.98;1.20;;;;;;;18.23;100.00;95973.16;4943982;28;20079;-65
2023/04/29 01:54:00;;;;;;;2.08;1.27;;;;;;;18.59;100.00;95961.25;4941454;28;20088;-65
2023/04/29 01:56:28;;;;;;;1.60;1.17;;;;;;;18.59;100.00;95963.91;4942763;28;22119;-65
2023/04/29 01:58:56;;;;;;;5.20;1.73;;;;;;;18.17;100.00;95964.13;4940257;28;20087;-65
2023/04/29 02:01:25;;;;;;;3.08;2.05;;;;;;;18.33;100.00;95962.06;4942774;28;21110;-66
2023/04/29 02:03:53;;;;;;;3.33;2.50;;;;;;;18.37;100.00;95963.28;4962236;28;20138;-65
2023/04/29 02:06:23;;;;;;;7.78;4.10;;;;;;;17.64;100.00;95965.81;4962327;28;20077;-65
2023/04/29 02:08:51;;;;;;;3.23;2.17;;;;;;;18.08;100.00;95964.53;4957984;28;20086;-66
2023/04/29 02:11:21;;;;;;;5.53;2.67;;;;;;;18.08;100.00;95961.84;4962363;28;20097;-65
2023/04/29 02:13:49;;;;;;;2.87;1.90;;;;;;;17.96;100.00;95969.63;4962451;28;20082;-64
2023/04/29 02:16:17;;;;;;;8.52;3.25;;;;;;;18.04;100.00;95966.78;4959324;28;20324;-65
2023/04/29 02:18:46;;;;;;;5.00;2.40;;;;;;;18.10;100.00;95957.13;4961085;28;20474;-66
2023/04/29 02:21:14;;;;;;;10.52;4.22;;;;;;;17.21;100.00;95966.91;4940993;28;20521;-64
2023/04/29 02:23:42;;;;;;;5.47;2.42;;;;;;;17.74;100.00;95966.28;4961306;28;20090;-66
2023/04/29 02:26:12;;;;;;;12.55;4.65;;;;;;;17.42;100.00;95967.81;4956535;28;20093;-64
2023/04/29 02:28:43;;;;;;;6.30;2.83;;;;;;;17.78;100.00;95970.19;4960880;28;20121;-63
2023/04/29 02:31:11;;;;;;;12.90;5.18;;;;;;;17.43;100.00;95972.94;4959141;28;20086;-65
2023/04/29 02:33:40;;;;;;;5.00;2.00;;;;;;;17.69;100.00;95966.88;4960765;28;20074;-65
2023/04/29 02:36:08;;;;;;;3.95;1.77;;;;;;;17.53;100.00;95972.56;4958723;28;20141;-64
2023/04/29 02:38:36;;;;;;;3.95;1.70;;;;;;;17.30;100.00;95973.69;4962844;28;20078;-65
2023/04/29 02:41:05;;;;;;;5.72;2.63;;;;;;;17.31;100.00;95964.69;4960198;28;20625;-65
2023/04/29 02:43:33;;;;;;;4.95;2.13;;;;;;;17.11;100.00;95969.13;4962736;28;20091;-66
2023/04/29 02:46:03;;;;;;;3.90;1.83;;;;;;;17.73;100.00;95960.13;4958687;28;20090;-65
2023/04/29 02:48:32;;;;;;;7.13;3.10;;;;;;;17.26;100.00;95966.31;4959875;28;20094;-65
2023/04/29 02:51:00;;;;;;;5.43;2.58;;;;;;;17.39;100.00;95968.22;4960129;28;20486;-64
2023/04/29 02:53:28;;;;;;;9.77;4.32;;;;;;;17.39;100.00;95969.03;4962051;28;20081;-64
2023/04/29 02:55:57;;;;;;;13.68;5.40;;;;;;;16.76;100.00;95965.66;4963754;28;20086;-64
2023/04/29 02:58:26;;;;;;;11.35;4.75;;;;;;;17.39;100.00;95973.53;4968862;28;20086;-64
2023/04/29 03:00:54;;;;;;;11.40;4.75;;;;;;;16.99;100.00;95979.50;4965329;28;20114;-64
2023/04/29 03:03:24;;;;;;;15.07;6.32;;;;;;;17.43;100.00;95967.59;4965855;28;20101;-65
2023/04/29 03:05:52;;;;;;;15.02;6.25;;;;;;;16.95;100.00;95974.75;4961688;28;20094;-64
2023/04/29 03:08:21;;;;;;;18.33;8.07;;;;;;;16.95;100.00;95980.91;4961696;28;20086;-65
2023/04/29 03:10:49;;;;;;;12.20;5.50;;;;;;;16.64;100.00;95969.81;4960707;28;20074;-64
2023/04/29 03:13:17;;;;;;;18.83;7.82;;;;;;;16.74;100.00;95973.81;4948780;28;20467;-65
2023/04/29 03:15:46;;;;;;;8.88;3.83;;;;;;;16.41;100.00;95972.72;4965748;28;20561;-63
2023/04/29 03:18:14;;;;;;;19.05;8.07;;;;;;;16.49;100.00;95977.91;4950858;28;20174;-64
2023/04/29 03:20:44;;;;;;;18.75;8.55;;;;;;;16.79;100.00;95975.88;4956010;28;20550;-63
2023/04/29 03:23:12;;;;;;;21.40;10.00;;;;;;;16.27;100.00;95974.44;4961993;28;20146;-63
2023/04/29 03:25:40;;;;;;;21.48;11.60;;;;;;;16.25;100.00;95974.66;4957664;28;20081;-62
2023/04/29 03:28:08;;;;;;;12.55;9.18;;;;;;;16.21;100.00;95973.41;4962089;28;20086;-64
2023/04/29 03:30:37;;;;;;;20.27;13.63;;;;;;;16.33;100.00;95977.16;4960559;28;20096;-63
2023/04/29 03:33:05;;;;;;;10.15;5.57;;;;;;;16.31;100.00;95968.56;4965514;28;20078;-66
2023/04/29 03:35:33;;;;;;;12.43;7.15;;;;;;;16.31;100.00;95975.69;4957623;28;20097;-63
2023/04/29 03:38:03;;;;;;;10.07;8.05;;;;;;;16.67;100.00;95972.09;4961672;28;20090;-61
2023/04/29 03:40:31;;;;;;;18.95;13.00;;;;;;;16.43;100.00;95973.34;4960018;28;20082;-63
2023/04/29 03:43:00;;;;;;;19.13;13.07;;;;;;;16.55;100.00;95967.31;4960303;28;20090;-65
2023/04/29 03:45:28;;;;;;;29.55;20.73;;;;;;;16.81;100.00;95966.69;4963642;28;21550;-63
2023/04/29 03:47:56;;;;;;;22.65;16.65;;;;;;;16.54;100.00;95967.50;4961943;28;20086;-63
2023/04/29 03:50:25;;;;;;;45.88;34.17;;;;;;;16.45;100.00;95971.31;4960141;28;20081;-63
2023/04/29 03:52:53;;;;;;;13.40;11.27;;;;;;;16.68;100.00;95968.41;4954084;28;20596;-65
2023/04/29 03:55:23;;;;;;;38.22;28.98;;;;;;;16.87;100.00;95966.94;4963852;28;20585;-63
2023/04/29 03:57:51;;;;;;;45.72;38.80;;;;;;;16.32;100.00;95977.38;4961623;28;20078;-64
2023/04/29 04:00:20;;;;;;;38.67;27.38;;;;;;;16.37;100.00;95972.28;4957106;28;20486;-64
2023/04/29 04:02:48;;;;;;;18.23;16.23;;;;;;;16.26;100.00;95980.78;4958967;28;20078;-64
2023/04/29 04:05:18;;;;;;;50.20;32.33;;;;;;;16.25;100.00;95977.31;4959637;28;20102;-64
2023/04/29 04:07:46;;;;;;;22.55;17.95;;;;;;;16.26;100.00;95980.78;4964198;28;20078;-64
2023/04/29 04:10:15;;;;;;;35.42;23.88;;;;;;;16.18;100.00;95973.78;4956880;28;20083;-64
2023/04/29 04:12:44;;;;;;;16.13;14.55;;;;;;;16.92;100.00;95978.63;4964294;28;20094;-64
2023/04/29 04:15:13;;;;;;;32.33;23.92;;;;;;;16.28;100.00;95987.56;4960553;28;20094;-63
2023/04/29 04:17:41;;;;;;;16.17;14.43;;;;;;;16.46;100.00;95988.94;4959917;28;20129;-64
2023/04/29 04:20:10;;;;;;;19.63;15.57;;;;;;;16.57;100.00;95988.41;4956990;28;20094;-64
2023/04/29 04:22:38;;;;;;;35.42;24.88;;;;;;;16.58;100.00;95992.72;4958340;28;20178;-65
2023/04/29 04:25:08;;;;;;;33.55;24.63;;;;;;;17.07;100.00;95994.50;4959934;28;21000;-64
2023/04/29 04:27:36;;;;;;;21.75;19.63;;;;;;;16.79;100.00;95998.03;4958192;28;20089;-64
2023/04/29 04:30:08;;;;;;;36.97;32.65;;;;;;;17.46;100.00;95996.53;4957399;28;20109;-64
2023/04/29 04:32:36;;;;;;;14.68;13.32;;;;;;;17.13;100.00;96007.03;4959541;28;20537;-65
2023/04/29 04:35:05;;;;;;;31.85;27.33;;;;;;;17.37;100.00;96005.72;4965287;28;20078;-65
2023/04/29 04:37:34;;;;;;;15.23;10.07;;;;;;;17.53;100.00;96007.22;4963853;28;20074;-65
2023/04/29 04:40:02;;;;;;;14.93;9.80;;;;;;;17.69;100.00;96006.88;4962967;28;20607;-64
2023/04/29 04:42:30;;;;;;;10.10;4.60;;;;;;;17.79;100.00;96004.69;4954839;28;25571;-65
2023/04/29 04:44:59;;;;;;;10.80;4.18;;;;;;;18.09;100.00;96007.00;4962230;28;20121;-64
2023/04/29 04:47:28;;;;;;;15.60;6.80;;;;;;;18.41;100.00;95996.56;4959701;28;20133;-65
2023/04/29 04:49:56;;;;;;;11.93;5.63;;;;;;;18.52;100.00;96000.47;4953058;28;20158;-63
2023/04/29 04:52:25;;;;;;;19.42;9.60;;;;;;;18.49;100.00;96002.53;4956100;28;20093;-65
2023/04/29 04:54:53;;;;;;;12.32;6.13;;;;;;;18.10;100.00;96005.16;4959818;28;20093;-64
2023/04/29 04:57:21;;;;;;;20.55;10.38;;;;;;;18.20;100.00;96010.91;4959347;28;20526;-65
2023/04/29 04:59:50;;;;;;;20.52;13.88;;;;;;;18.19;100.00;96010.09;4960331;28;20683;-64
2023/04/29 05:02:18;;;;;;;24.40;16.30;;;;;;;18.29;100.00;96014.22;4955336;28;20478;-65
2023/04/29 05:04:48;;;;;;;16.98;15.30;;;;;;;18.49;100.00;96007.88;4962678;28;20080;-66
2023/04/29 05:07:16;;;;;;;27.73;20.58;;;;;;;17.97;100.00;96017.44;4963238;28;20082;-65
2023/04/29 05:09:45;;;;;;;20.05;17.83;;;;;;;18.39;100.00;96014.66;4960748;28;20086;-64
2023/04/29 05:12:13;;;;;;;22.83;15.52;;;;;;;18.78;100.00;96011.16;4951427;28;20154;-64
2023/04/29 05:14:41;;;;;;;23.05;17.92;;;;;;;19.05;100.00;96005.78;4958541;28;20087;-64
2023/04/29 05:17:10;;;;;;;15.45;11.73;;;;;;;19.50;100.00;96012.03;4960458;28;20085;-65
2023/04/29 05:19:38;;;;;;;35.28;24.95;;;;;;;19.31;100.00;96015.63;4953523;28;20478;-65
2023/04/29 05:22:08;;;;;;;38.60;28.30;;;;;;;19.46;100.00;96026.88;4958613;28;20087;-65
2023/04/29 05:24:36;;;;;;;49.80;34.97;;;;;;;19.19;100.00;96024.25;4954460;28;20078;-64
2023/04/29 05:27:04;;;;;;;57.60;37.35;;;;;;;19.28;100.00;96032.88;4958662;28;20125;-64
2023/04/29 05:29:32;;;;;;;86.05;56.60;;;;;;;18.94;100.00;96031.31;4957833;28;20095;-65
2023/04/29 05:32:01;;;;;;;59.83;39.47;;;;;;;19.69;100.00;96029.09;4959168;28;20093;-65
2023/04/29 05:34:29;;;;;;;46.75;30.35;;;;;;;19.28;100.00;96040.09;4961205;28;20082;-65
2023/04/29 05:36:58;;;;;;;57.40;40.25;;;;;;;18.66;100.00;96037.66;4959339;28;20526;-65
2023/04/29 05:39:27;;;;;;;115.53;70.13;;;;;;;19.44;100.00;96036.94;4962920;28;20471;-64
2023/04/29 05:41:55;;;;;;;126.00;85.50;;;;;;;18.76;100.00;96049.81;4959615;28;20470;-65
2023/04/29 05:44:24;;;;;;;129.65;84.50;;;;;;;18.60;100.00;96051.00;4958809;28;20097;-65
2023/04/29 05:46:52;;;;;;;122.75;74.38;;;;;;;18.34;100.00;96054.47;4965478;28;20109;-66
2023/04/29 05:49:20;;;;;;;123.60;76.68;;;;;;;18.29;100.00;96051.59;4955716;28;20122;-64
2023/04/29 05:51:48;;;;;;;105.65;67.22;;;;;;;18.18;100.00;96053.84;4956866;28;20155;-66
2023/04/29 05:54:17;;;;;;;127.45;77.43;;;;;;;18.10;100.00;96056.69;4963752;28;20089;-65
2023/04/29 05:56:46;;;;;;;112.05;72.85;;;;;;;18.65;100.00;96064.56;4958032;28;20105;-65
2023/04/29 05:59:15;;;;;;;123.03;79.30;;;;;;;18.06;100.00;96067.94;4955678;28;20130;-65
2023/04/29 06:01:43;;;;;;;136.48;87.22;;;;;;;18.70;100.00;96070.94;4954931;28;20535;-65
2023/04/29 06:04:11;;;;;;;116.72;76.07;;;;;;;18.57;100.00;96068.25;4957240;28;20082;-65
2023/04/29 06:06:40;;;;;;;10.13;4.47;;;;;;;18.91;100.00;96067.25;4958124;28;20098;-66
2023/04/29 06:09:08;;;;;;;10.23;5.50;;;;;;;19.19;100.00;96071.56;4962451;28;20070;-66
2023/04/29 06:11:55;;;;;;;22.30;9.95;;;;;;;19.43;100.00;96070.88;4962680;28;20070;-64
2023/04/29 06:14:23;;;;;;;24.27;12.07;;;;;;;19.54;100.00;96071.28;4952669;28;20130;-65
2023/04/29 06:16:52;;;;;;;18.42;12.07;;;;;;;19.13;100.00;96081.25;4956791;28;20070;-66
2023/04/29 06:19:21;;;;;;;24.63;20.02;;;;;;;18.78;100.00;96083.28;4964117;28;20132;-65
2023/04/29 06:21:49;;;;;;;20.85;16.45;;;;;;;18.83;100.00;96085.38;4948715;28;20137;-65
2023/04/29 06:24:17;;;;;;;47.90;36.63;;;;;;;18.97;100.00;96084.34;4960090;28;20098;-65
2023/04/29 06:26:45;;;;;;;32.80;29.38;;;;;;;19.31;100.00;96088.63;4964776;28;20097;-66
2023/04/29 06:29:15;;;;;;;43.05;38.03;;;;;;;19.75;100.00;96089.78;4962204;28;20082;-65
2023/04/29 06:31:43;;;;;;;108.27;97.10;;;;;;;19.51;100.00;96088.56;4958578;28;20093;-64
2023/04/29 06:34:12;;;;;;;42.60;38.17;;;;;;;19.58;100.00;96099.22;4963890;28;20083;-65
2023/04/29 06:36:41;;;;;;;120.63;109.28;;;;;;;19.41;100.00;96093.53;4963237;28;20558;-64
2023/04/29 06:39:09;;;;;;;30.60;24.05;;;;;;;19.52;100.00;96102.78;4965399;28;20082;-64
2023/04/29 06:41:39;;;;;;;149.68;136.45;;;;;;;19.30;100.00;96099.50;4969419;28;20109;-64
2023/04/29 06:44:08;;;;;;;18.45;15.02;;;;;;;19.33;100.00;96102.59;4979153;28;20098;-65
2023/04/29 06:46:38;;;;;;;17.63;12.70;;;;;;;19.33;100.00;96097.22;4962795;28;20070;-66
2023/04/29 06:49:06;;;;;;;19.10;15.23;;;;;;;19.75;100.00;96099.63;4965133;28;20086;-65
2023/04/29 06:51:35;;;;;;;28.50;21.27;;;;;;;19.07;100.00;96106.13;4966833;28;21513;-64
2023/04/29 06:54:04;;;;;;;19.25;14.10;;;;;;;18.86;100.00;96117.03;4960979;28;20082;-65
2023/04/29 06:56:32;;;;;;;35.40;23.88;;;;;;;19.42;100.00;96104.00;4960132;28;20501;-65
2023/04/29 06:59:00;;;;;;;16.95;11.25;;;;;;;19.58;100.00;96108.09;4964587;28;20083;-65
2023/04/29 07:01:29;;;;;;;18.10;12.85;;;;;;;19.09;100.00;96109.38;4967087;28;20480;-64
2023/04/29 07:03:58;;;;;;;24.20;14.85;;;;;;;19.03;100.00;96106.72;4963035;28;20118;-65
2023/04/29 07:06:27;;;;;;;26.58;15.60;;;;;;;19.48;100.00;96113.06;4967305;28;20095;-64
2023/04/29 07:08:55;;;;;;;23.75;13.35;;;;;;;19.58;100.00;96109.94;4960671;28;20562;-65
2023/04/29 07:11:25;;;;;;;29.48;18.02;;;;;;;19.40;100.00;96105.25;4960955;28;20152;-64
2023/04/29 07:13:54;;;;;;;25.53;15.50;;;;;;;19.82;100.00;96109.31;4959918;28;20086;-64
2023/04/29 07:16:25;;;;;;;25.48;12.63;;;;;;;19.71;100.00;96117.97;4962388;28;20398;-63
2023/04/29 07:18:53;;;;;;;21.17;12.05;;;;;;;19.39;100.00;96114.31;4965879;28;20235;-63
2023/04/29 07:21:23;;;;;;;22.42;14.13;;;;;;;20.08;100.00;96113.72;4963941;28;20502;-63
2023/04/29 07:23:52;;;;;;;21.27;15.80;;;;;;;19.55;100.00;96115.72;4959939;28;20078;-64
2023/04/29 07:26:20;;;;;;;21.92;14.05;;;;;;;19.70;100.00;96121.69;4960507;28;20086;-64
2023/04/29 07:28:49;;;;;;;17.92;10.45;;;;;;;20.90;100.00;96118.44;4961694;28;20081;-64
2023/04/29 07:31:17;;;;;;;12.27;9.15;;;;;;;20.80;100.00;96111.69;4961067;28;20629;-64
2023/04/29 07:33:46;;;;;;;17.25;10.10;;;;;;;21.55;100.00;96116.22;4964529;28;20078;-64
2023/04/29 07:36:14;;;;;;;15.52;9.20;;;;;;;20.98;100.00;96115.47;4962408;28;20082;-64
2023/04/29 07:38:44;;;;;;;13.57;8.52;;;;;;;21.85;100.00;96105.59;4969140;28;20097;-64
2023/04/29 07:41:12;;;;;;;19.43;12.20;;;;;;;21.88;100.00;96115.03;4962419;28;20085;-65
2023/04/29 07:43:41;;;;;;;13.20;8.00;;;;;;;22.62;100.00;96116.59;4963569;28;20913;-64
2023/04/29 07:46:09;;;;;;;16.98;10.85;;;;;;;22.21;100.00;96112.81;4959024;28;20087;-64
2023/04/29 07:48:38;;;;;;;14.27;9.02;;;;;;;22.35;100.00;96115.31;4959580;28;20089;-65
2023/04/29 07:51:07;;;;;;;8.18;5.57;;;;;;;22.42;100.00;96108.81;4962312;28;20093;-65
2023/04/29 07:53:36;;;;;;;18.88;11.68;;;;;;;21.25;100.00;96121.44;4962707;28;20085;-64
2023/04/29 07:56:07;;;;;;;14.65;7.93;;;;;;;22.32;100.00;96118.47;4960888;28;20090;-63
2023/04/29 07:58:35;;;;;;;21.35;11.50;;;;;;;22.23;100.00;96120.66;4965836;28;20117;-63
2023/04/29 08:01:08;;;;;;;18.55;9.82;;;;;;;22.81;100.00;96120.03;4962135;28;20070;-63
2023/04/29 08:03:36;;;;;;;10.95;6.53;;;;;;;22.24;100.00;96127.66;4959317;28;20121;-63
2023/04/29 08:06:08;;;;;;;9.95;6.10;;;;;;;22.69;100.00;96127.25;4965141;28;20074;-64
2023/04/29 08:08:36;;;;;;;17.63;11.05;;;;;;;22.15;100.00;96121.75;4955455;28;20086;-63
2023/04/29 08:11:06;;;;;;;10.30;5.82;;;;;;;22.58;100.00;96122.66;4966261;28;20087;-63
2023/04/29 08:13:34;;;;;;;5.95;3.97;;;;;;;23.65;100.00;96107.25;4972235;28;20113;-63
2023/04/29 08:16:03;;;;;;;7.30;3.50;;;;;;;23.72;100.00;96115.25;4960802;28;20093;-64
2023/04/29 08:18:31;;;;;;;12.23;7.07;;;;;;;23.82;100.00;96118.16;4961401;28;20094;-64
2023/04/29 08:20:59;;;;;;;4.28;3.13;;;;;;;24.22;100.00;96111.16;4962999;28;20086;-64
2023/04/29 08:23:28;;;;;;;5.00;2.85;;;;;;;23.60;100.00;96117.09;4962039;28;20101;-65
2023/04/29 08:25:56;;;;;;;17.83;9.98;;;;;;;23.37;100.00;96113.38;4958516;28;20086;-65
2023/04/29 08:28:26;;;;;;;8.02;4.57;;;;;;;23.64;100.00;96113.72;4953875;28;20092;-65
2023/04/29 08:30:55;;;;;;;5.75;3.50;;;;;;;24.23;100.00;96115.50;4959026;28;20078;-64
2023/04/29 08:33:23;;;;;;;6.72;3.60;;;;;;;23.77;100.00;96112.66;4956739;28;20090;-64
2023/04/29 08:35:58;;;;;;;5.93;4.20;;;;;;;25.05;100.00;96115.13;4962865;28;20093;-65
2023/04/29 08:38:27;;;;;;;6.68;2.65;;;;;;;25.16;100.00;96108.06;4959489;28;20530;-64
2023/04/29 08:40:55;;;;;;;2.80;1.92;;;;;;;25.51;100.00;96110.47;4963542;28;20093;-65
2023/04/29 08:43:24;;;;;;;4.03;3.00;;;;;;;24.58;100.00;96108.13;4959380;28;20078;-64
2023/04/29 08:45:53;;;;;;;18.60;11.82;;;;;;;24.19;100.00;96112.47;4962439;28;20081;-63
2023/04/29 08:48:22;;;;;;;4.72;2.70;;;;;;;24.21;100.00;96114.91;4958321;28;20070;-64
2023/04/29 08:50:50;;;;;;;4.00;2.33;;;;;;;24.46;100.00;96112.72;4954769;28;20089;-63
2023/04/29 08:53:19;;;;;;;39.90;31.50;;;;;;;23.38;100.00;96115.00;4961283;28;20092;-65
2023/04/29 08:55:48;;;;;;;2.63;1.92;;;;;;;24.32;100.00;96114.03;4959605;28;20086;-64
2023/04/29 08:58:16;;;;;;;16.35;11.85;;;;;;;23.31;100.00;96125.06;4958189;28;20179;-65
2023/04/29 09:00:45;;;;;;;13.65;10.80;;;;;;;23.85;100.00;96111.50;4960241;28;20502;-63
2023/04/29 09:03:18;;;;;;;20.20;13.18;;;;;;;22.64;100.00;96129.78;4960428;28;20565;-65
2023/04/29 09:05:50;;;;;;;13.55;8.70;;;;;;;23.41;100.00;96105.66;4961105;28;20115;-63
2023/04/29 09:08:20;;;;;;;9.00;4.80;;;;;;;23.09;100.00;96121.28;4963455;28;20497;-64
2023/04/29 09:10:48;;;;;;;8.65;6.00;;;;;;;24.93;100.00;96101.72;4959014;28;20093;-64
2023/04/29 09:13:24;;;;;;;11.35;6.40;;;;;;;24.74;100.00;96111.06;4957975;28;20097;-64
2023/04/29 09:15:52;;;;;;;27.40;17.15;;;;;;;23.76;100.00;96119.09;4955570;28;20086;-64
2023/04/29 09:18:44;;;;;;;36.90;31.80;;;;;;;23.80;100.00;96109.50;4957340;28;20093;-63
2023/04/29 09:21:14;;;;;;;24.27;20.05;;;;;;;23.71;100.00;96112.78;4957526;28;20083;-64
2023/04/29 09:23:42;;;;;;;28.57;19.60;;;;;;;23.25;100.00;96107.16;4954107;28;20093;-64
2023/04/29 09:26:10;;;;;;;19.83;17.38;;;;;;;24.05;100.00;96103.81;4959037;28;20489;-64
2023/04/29 09:28:42;;;;;;;12.18;8.30;;;;;;;23.64;100.00;96108.34;4958749;28;20546;-64
2023/04/29 09:31:11;;;;;;;60.53;53.45;;;;;;;23.55;100.00;96114.31;4962424;28;20085;-65
2023/04/29 09:33:54;;;;;;;35.78;30.27;;;;;;;24.41;100.00;96104.56;4957259;28;20097;-64
2023/04/29 09:36:40;;;;;;;21.27;12.52;;;;;;;25.17;95.00;96104.28;4948395;28;20124;-64
2023/04/29 09:39:11;;;;;;;3.85;1.67;;;;;;;25.16;89.98;96097.28;4971907;28;20086;-66
2023/04/29 09:41:42;;;;;;;2.45;1.75;;;;;;;26.46;94.02;96081.44;4962275;28;20094;-65
2023/04/29 09:44:10;;;;;;;3.28;2.28;;;;;;;25.94;84.49;96092.72;4967130;28;20105;-65
2023/04/29 09:46:38;;;;;;;3.03;2.00;;;;;;;25.18;88.61;96095.13;4968834;28;20108;-64
2023/04/29 09:49:24;;;;;;;3.17;1.30;;;;;;;24.23;99.09;96104.72;4967411;28;20086;-65
2023/04/29 09:51:55;;;;;;;4.07;2.38;;;;;;;22.92;100.00;96119.28;4966832;28;20089;-65
2023/04/29 09:54:24;;;;;;;4.07;2.20;;;;;;;23.80;100.00;96114.88;4967218;28;20083;-65
2023/04/29 09:56:53;;;;;;;3.93;2.03;;;;;;;23.80;100.00;96119.44;4961955;28;20105;-64
2023/04/29 09:59:22;;;;;;;1.60;1.40;;;;;;;22.98;100.00;96130.97;4960689;28;20078;-64
2023/04/29 10:01:53;;;;;;;1.95;1.40;;;;;;;22.92;100.00;96115.75;4964042;28;20138;-65
2023/04/29 10:04:24;;;;;;;1.92;1.50;;;;;;;23.32;100.00;96118.63;4961138;28;20190;-64
2023/04/29 10:06:54;;;;;;;2.38;1.25;;;;;;;23.77;100.00;96114.53;4959063;28;20135;-64
2023/04/29 10:09:23;;;;;;;1.88;1.45;;;;;;;24.10;99.68;96120.09;4963928;28;20086;-64
2023/04/29 10:11:52;;;;;;;4.40;1.52;;;;;;;23.88;100.00;96124.47;4965722;28;20078;-65
2023/04/29 10:14:23;;;;;;;1.20;0.85;;;;;;;24.34;98.34;96122.72;4966934;28;20101;-63
2023/04/29 10:16:59;;;;;;;7.35;1.05;;;;;;;24.45;88.61;96119.19;4963531;28;20078;-60
2023/04/29 10:19:34;;;;;;;2.00;1.17;;;;;;;24.29;90.68;96109.13;4963048;28;20100;-61
2023/04/29 10:22:08;;;;;;;3.97;1.67;;;;;;;24.70;100.00;96109.94;4968322;28;20070;-62
2023/04/29 10:24:37;;;;;;;2.00;1.50;;;;;;;24.04;87.15;96110.25;4966195;28;20078;-61
2023/04/29 10:27:07;;;;;;;2.78;1.63;;;;;;;24.41;84.26;96095.66;4964395;28;21006;-62
2023/04/29 10:29:37;;;;;;;2.00;1.48;;;;;;;24.86;84.87;96104.56;4969001;28;20078;-62
2023/04/29 10:32:09;;;;;;;1.80;1.40;;;;;;;25.10;85.50;96105.22;4966720;28;20090;-62
2023/04/29 10:34:39;;;;;;;3.53;1.70;;;;;;;25.58;92.46;96100.31;4972179;28;20094;-62
2023/04/29 10:37:08;;;;;;;2.45;1.33;;;;;;;25.61;81.08;96107.13;4964587;28;20516;-62
2023/04/29 10:39:42;;;;;;;8.00;3.90;;;;;;;24.34;89.90;96118.16;4970764;28;20460;-63
2023/04/29 10:42:17;;;;;;;10.38;5.97;;;;;;;23.78;90.04;96114.31;4964265;28;20086;-63
2023/04/29 10:45:31;;;;;;;4.70;2.35;;;;;;;23.98;87.64;96105.00;4967567;28;20086;-63
2023/04/29 10:48:17;;;;;;;12.10;4.75;;;;;;;24.56;76.20;96104.84;4926138;29;20079;-61
2023/04/29 10:51:03;;;;;;;31.40;23.60;;;;;;;24.91;80.49;96089.53;4956869;28;20082;-63
2023/04/29 10:53:31;;;;;;;3.22;1.30;;;;;;;24.24;85.15;96100.97;4965894;28;20066;-63
2023/04/29 10:56:08;;;;;;;2.53;1.23;;;;;;;24.31;81.25;96091.66;4959049;28;20082;-62
2023/04/29 10:58:44;;;;;;;1.92;1.20;;;;;;;24.06;81.87;96078.53;4964888;28;20534;-63
2023/04/29 11:01:14;;;;;;;1.45;1.35;;;;;;;24.76;86.15;96099.00;4964515;28;20079;-59
2023/04/29 11:03:53;;;;;;;;;;;;;;;24.38;79.54;96094.22;4977465;28;20090;-60
2023/04/29 11:06:25;;;;;;;1.25;0.88;;;;;;;23.63;63.67;96095.09;4967199;28;19968;-60
2023/04/29 11:09:01;;;;;;;0.98;0.70;;;;;;;23.96;68.98;96096.38;4963235;28;20078;-57
2023/04/29 11:12:02;;;;;;;2.42;1.27;;;;;;;23.96;68.85;96085.59;4970874;28;20082;-61
2023/04/29 11:14:31;;;;;;;;;;;;;;;23.96;69.71;96094.47;4957440;28;20548;-62
2023/04/29 11:17:01;;;;;;;1.90;0.60;;;;;;;23.37;69.16;96096.41;4971743;28;19969;-61
2023/04/29 11:19:33;;;;;;;2.13;1.00;;;;;;;23.67;69.67;96102.50;4970010;28;20085;-60
2023/04/29 11:22:16;;;;;;;0.60;0.60;;;;;;;24.43;74.97;96088.94;4971741;28;20081;-60
2023/04/29 11:24:55;;;;;;;0.77;0.70;;;;;;;24.10;55.88;96090.47;4971561;28;20482;-62
2023/04/29 11:27:26;;;;;;;0.43;0.43;;;;;;;24.31;61.19;96078.19;4971606;28;20082;-62
2023/04/29 11:29:58;;;;;;;1.90;0.60;;;;;;;23.79;61.01;96086.31;4978305;28;20082;-61
2023/04/29 11:32:27;;;;;;;2.55;0.70;;;;;;;23.77;61.61;96087.59;4978795;28;20086;-58
2023/04/29 11:34:56;;;;;;;0.80;0.63;;;;;;;23.67;59.08;96102.50;4981113;28;20086;-61
2023/04/29 11:37:26;;;;;;;0.70;0.60;;;;;;;24.23;58.26;96086.69;4977290;28;20082;-57